createdAt,value
2023-01-29T00:00:33.801Z,100238.06
2023-01-29T00:03:00.315Z,100242.38
2023-01-29T00:05:28.446Z,100245.94
2023-01-29T00:07:56.938Z,100244.81
2023-01-29T00:10:24.962Z,100229.88
2023-01-29T00:12:51.441Z,100223.50
2023-01-29T00:15:18.134Z,100216.84
2023-01-29T00:17:44.566Z,100225.13
2023-01-29T00:20:11.847Z,100233.72
2023-01-29T00:22:38.246Z,100245.75
2023-01-29T00:25:05.046Z,100251.19
2023-01-29T00:27:31.568Z,100246.59
2023-01-29T00:29:58.233Z,100234.09
2023-01-29T00:32:24.806Z,100222.00
2023-01-29T00:34:51.261Z,100215.25
2023-01-29T00:37:18.036Z,100220.38
2023-01-29T00:39:48.204Z,100223.03
2023-01-29T00:42:14.973Z,100212.50
2023-01-29T00:44:41.453Z,100221.34
2023-01-29T00:47:07.937Z,100207.44
2023-01-29T00:49:34.516Z,100217.13
2023-01-29T00:52:01.194Z,100210.38
2023-01-29T00:54:27.606Z,100220.25
2023-01-29T00:56:56.401Z,100230.94
2023-01-29T00:59:22.917Z,100232.63
2023-01-29T01:01:49.493Z,100238.81
2023-01-29T01:04:16.231Z,100238.06
2023-01-29T01:06:42.766Z,100233.75
2023-01-29T01:09:10.481Z,100226.72
2023-01-29T01:11:36.823Z,100220.50
2023-01-29T01:14:03.362Z,100223.97
2023-01-29T01:16:29.829Z,100219.47
2023-01-29T01:18:56.488Z,100209.91
2023-01-29T01:21:23.018Z,100203.34
2023-01-29T01:23:49.438Z,100187.69
2023-01-29T01:26:15.860Z,100173.59
2023-01-29T01:28:42.460Z,100150.03
2023-01-29T01:31:11.341Z,100133.63
2023-01-29T01:33:38.465Z,100129.88
2023-01-29T01:36:06.381Z,100130.72
2023-01-29T01:38:33.177Z,100125.66
2023-01-29T01:40:59.586Z,100132.38
2023-01-29T01:43:26.901Z,100147.19
2023-01-29T01:45:53.618Z,100156.34
2023-01-29T01:48:24.848Z,100170.41
2023-01-29T01:51:00.549Z,100175.66
2023-01-29T01:53:38.952Z,100176.59
2023-01-29T01:56:09.444Z,100183.91
2023-01-29T01:58:43.695Z,100189.09
2023-01-29T02:01:11.330Z,100189.94
2023-01-29T02:03:49.710Z,100184.69
2023-01-29T02:06:16.205Z,100188.25
2023-01-29T02:08:52.730Z,100195.47
2023-01-29T02:11:20.343Z,100187.38
2023-01-29T02:13:47.296Z,100179.44
2023-01-29T02:16:14.050Z,100169.75
2023-01-29T02:18:40.859Z,100161.03
2023-01-29T02:21:40.489Z,100158.41
2023-01-29T02:24:35.221Z,100157.56
2023-01-29T02:27:14.922Z,100162.38
2023-01-29T02:29:53.380Z,100170.91
2023-01-29T02:32:28.424Z,100171.63
2023-01-29T02:35:09.118Z,100161.31
2023-01-29T02:37:50.034Z,100175.59
2023-01-29T02:40:35.181Z,100173.78
2023-01-29T02:43:28.977Z,100155.31
2023-01-29T02:46:20.401Z,100139.56
2023-01-29T02:48:59.587Z,100127.47
2023-01-29T02:51:34.398Z,100127.47
2023-01-29T02:54:11.443Z,100130.00
2023-01-29T02:56:51.912Z,100128.31
2023-01-29T02:59:25.929Z,100135.66
2023-01-29T03:02:05.414Z,100143.53
2023-01-29T03:04:36.673Z,100142.00
2023-01-29T03:07:10.353Z,100144.19
2023-01-29T03:09:42.769Z,100159.09
2023-01-29T03:12:26.687Z,100171.28
2023-01-29T03:14:53.303Z,100171.47
2023-01-29T03:17:26.251Z,100167.81
2023-01-29T03:19:53.213Z,100160.69
2023-01-29T03:22:20.802Z,100147.94
2023-01-29T03:24:51.952Z,100142.06
2023-01-29T03:27:23.278Z,100157.63
2023-01-29T03:29:52.978Z,100149.81
2023-01-29T03:32:21.255Z,100145.78
2023-01-29T03:34:58.711Z,100147.75
2023-01-29T03:37:46.515Z,100143.34
2023-01-29T03:40:15.325Z,100143.16
2023-01-29T03:43:14.130Z,100137.91
2023-01-29T03:46:02.174Z,100138.84
2023-01-29T03:48:37.117Z,100132.47
2023-01-29T03:51:06.652Z,100140.34
2023-01-29T03:53:47.646Z,100135.28
2023-01-29T03:56:21.499Z,100141.47
2023-01-29T03:59:07.009Z,100133.50
2023-01-29T04:01:45.199Z,100131.56
2023-01-29T04:04:17.122Z,100116.53
2023-01-29T04:06:47.607Z,100134.91
2023-01-29T04:09:20.452Z,100136.63
2023-01-29T04:11:54.376Z,100123.38
2023-01-29T04:14:22.070Z,100126.84
2023-01-29T04:16:53.370Z,100131.75
2023-01-29T04:19:21.065Z,100123.66
2023-01-29T04:21:50.679Z,100120.19
2023-01-29T04:24:17.634Z,100110.94
2023-01-29T04:26:51.325Z,100109.97
2023-01-29T04:29:30.435Z,100114.94
2023-01-29T04:32:18.540Z,100115.50
2023-01-29T04:34:51.080Z,100124.97
2023-01-29T04:37:36.058Z,100124.78
2023-01-29T04:40:15.122Z,100123.94
2023-01-29T04:42:51.177Z,100132.72
2023-01-29T04:45:39.494Z,100146.16
2023-01-29T04:48:11.737Z,100148.97
2023-01-29T04:50:44.306Z,100136.81
2023-01-29T04:53:23.461Z,100121.97
2023-01-29T04:55:56.837Z,100113.91
2023-01-29T04:58:34.872Z,100109.47
2023-01-29T05:01:05.980Z,100100.75
2023-01-29T05:03:34.059Z,100095.16
2023-01-29T05:06:02.104Z,100092.94
2023-01-29T05:08:31.246Z,100098.38
2023-01-29T05:11:00.139Z,100115.72
2023-01-29T05:13:30.097Z,100102.28
2023-01-29T05:16:25.664Z,100120.78
2023-01-29T05:18:52.356Z,100112.34
2023-01-29T05:21:19.520Z,100120.97
2023-01-29T05:23:46.015Z,100121.63
2023-01-29T05:26:12.399Z,100118.22
2023-01-29T05:28:39.264Z,100124.25
2023-01-29T05:31:06.113Z,100119.72
2023-01-29T05:33:32.647Z,100107.72
2023-01-29T05:36:00.338Z,100113.56
2023-01-29T05:38:26.873Z,100124.97
2023-01-29T05:40:53.615Z,100113.63
2023-01-29T05:43:23.018Z,100112.78
2023-01-29T05:46:00.444Z,100105.09
2023-01-29T05:48:28.957Z,100112.78
2023-01-29T05:51:00.870Z,100108.50
2023-01-29T05:53:29.478Z,100119.00
2023-01-29T05:55:56.081Z,100112.72
2023-01-29T05:58:23.139Z,100114.19
2023-01-29T06:00:49.717Z,100107.16
2023-01-29T06:03:16.074Z,100101.53
2023-01-29T06:05:42.523Z,100097.78
2023-01-29T06:08:09.100Z,100088.13
2023-01-29T06:10:35.561Z,100075.78
2023-01-29T06:13:02.593Z,100080.38
2023-01-29T06:15:29.129Z,100095.28
2023-01-29T06:17:57.296Z,100085.44
2023-01-29T06:20:24.921Z,100085.44
2023-01-29T06:22:51.651Z,100083.09
2023-01-29T06:25:19.655Z,100090.75
2023-01-29T06:27:46.260Z,100084.78
2023-01-29T06:30:13.302Z,100104.91
2023-01-29T06:32:39.940Z,100099.47
2023-01-29T06:35:06.946Z,100089.84
2023-01-29T06:37:33.470Z,100099.66
2023-01-29T06:39:59.864Z,100094.22
2023-01-29T06:42:26.624Z,100102.09
2023-01-29T06:44:54.515Z,100095.75
2023-01-29T06:47:21.186Z,100097.22
2023-01-29T06:49:47.599Z,100100.50
2023-01-29T06:52:14.248Z,100112.34
2023-01-29T06:54:40.834Z,100121.53
2023-01-29T06:57:07.545Z,100115.22
2023-01-29T06:59:34.064Z,100105.69
2023-01-29T07:02:00.517Z,100098.75
2023-01-29T07:04:26.993Z,100096.78
2023-01-29T07:06:53.714Z,100112.53
2023-01-29T07:09:20.218Z,100122.06
2023-01-29T07:11:46.708Z,100121.25
2023-01-29T07:14:13.140Z,100111.88
2023-01-29T07:16:39.584Z,100099.84
2023-01-29T07:19:06.106Z,100103.25
2023-01-29T07:21:32.746Z,100096.13
2023-01-29T07:23:59.458Z,100094.41
2023-01-29T07:26:26.177Z,100091.41
2023-01-29T07:28:52.780Z,100099.78
2023-01-29T07:31:19.311Z,100091.16
2023-01-29T07:33:46.675Z,100089.28
2023-01-29T07:36:14.207Z,100083.53
2023-01-29T07:38:42.194Z,100091.91
2023-01-29T07:41:09.824Z,100087.84
2023-01-29T07:43:36.637Z,100108.75
2023-01-29T07:46:04.199Z,100105.09
2023-01-29T07:48:30.702Z,100095.25
2023-01-29T07:50:57.693Z,100094.00
2023-01-29T07:53:24.492Z,100092.13
2023-01-29T07:55:51.131Z,100089.28
2023-01-29T07:58:18.432Z,100089.41
2023-01-29T08:00:45.566Z,100082.56
2023-01-29T08:03:19.517Z,100084.44
2023-01-29T08:05:46.559Z,100085.19
2023-01-29T08:08:13.601Z,100083.03
2023-01-29T08:10:40.994Z,100091.03
2023-01-29T08:13:08.194Z,100087.88
2023-01-29T08:15:37.772Z,100093.72
2023-01-29T08:18:05.237Z,100079.53
2023-01-29T08:20:31.783Z,100072.94
2023-01-29T08:23:02.688Z,100077.25
2023-01-29T08:25:29.156Z,100075.94
2023-01-29T08:27:59.956Z,100066.41
2023-01-29T08:30:29.171Z,100061.25
2023-01-29T08:32:56.116Z,100064.06
2023-01-29T08:35:23.962Z,100061.97
2023-01-29T08:37:54.892Z,100068.44
2023-01-29T08:40:21.491Z,100066.97
2023-01-29T08:42:48.005Z,100068.25
2023-01-29T08:45:14.595Z,100063.81
2023-01-29T08:47:49.962Z,100064.28
2023-01-29T08:50:18.227Z,100056.03
2023-01-29T08:52:45.849Z,100046.28
2023-01-29T08:55:14.158Z,100044.28
2023-01-29T08:57:40.805Z,100035.16
2023-01-29T09:00:08.576Z,100018.78
2023-01-29T09:02:35.566Z,100022.06
2023-01-29T09:05:01.991Z,100028.66
2023-01-29T09:07:29.904Z,100030.66
2023-01-29T09:09:58.050Z,100026.44
2023-01-29T09:12:24.635Z,100031.97
2023-01-29T09:14:51.127Z,100023.81
2023-01-29T09:17:17.634Z,100028.16
2023-01-29T09:19:44.148Z,100013.97
2023-01-29T09:22:11.865Z,100018.75
2023-01-29T09:24:39.141Z,100018.63
2023-01-29T09:27:05.918Z,100015.56
2023-01-29T09:29:35.438Z,100015.72
2023-01-29T09:32:03.910Z,100014.66
2023-01-29T09:34:30.448Z,100018.34
2023-01-29T09:36:57.341Z,100016.13
2023-01-29T09:39:24.148Z,100021.00
2023-01-29T09:42:23.275Z,100013.16
2023-01-29T09:45:10.285Z,100001.94
2023-01-29T09:47:37.071Z,99990.31
2023-01-29T09:50:36.927Z,99992.66
2023-01-29T09:53:27.728Z,99984.03
2023-01-29T09:56:05.675Z,99988.66
2023-01-29T09:58:38.744Z,99971.00
2023-01-29T10:01:33.957Z,99976.25
2023-01-29T10:04:03.735Z,99978.97
2023-01-29T10:06:30.182Z,99973.41
2023-01-29T10:09:28.707Z,99962.56
2023-01-29T10:12:35.492Z,99943.84
2023-01-29T10:15:39.398Z,99926.91
2023-01-29T10:18:17.902Z,99918.69
2023-01-29T10:20:56.965Z,99901.69
2023-01-29T10:23:34.368Z,99901.13
2023-01-29T10:26:01.122Z,99894.97
2023-01-29T10:28:44.250Z,99880.69
2023-01-29T10:31:15.271Z,99880.16
2023-01-29T10:34:01.106Z,99882.13
2023-01-29T10:36:43.805Z,99879.53
2023-01-29T10:39:20.312Z,99890.00
2023-01-29T10:42:19.992Z,99890.47
2023-01-29T10:45:08.916Z,99905.56
2023-01-29T10:48:06.471Z,99921.44
2023-01-29T10:50:36.096Z,99912.09
2023-01-29T10:53:21.149Z,99914.53
2023-01-29T10:56:23.142Z,99913.63
2023-01-29T10:59:35.165Z,99904.59
2023-01-29T11:02:01.811Z,99898.31
2023-01-29T11:04:31.804Z,99897.38
2023-01-29T11:06:59.544Z,99900.75
2023-01-29T11:10:08.191Z,99901.44
2023-01-29T11:12:35.964Z,99895.84
2023-01-29T11:15:19.921Z,99904.78
2023-01-29T11:18:15.935Z,99902.75
2023-01-29T11:20:45.737Z,99888.31
2023-01-29T11:23:30.997Z,99889.16
2023-01-29T11:25:59.315Z,99890.81
2023-01-29T11:28:46.610Z,99881.00
2023-01-29T11:31:29.294Z,99876.91
2023-01-29T11:34:21.029Z,99878.47
2023-01-29T11:37:00.793Z,99875.19
2023-01-29T11:39:30.082Z,99872.59
2023-01-29T11:41:58.159Z,99869.69
2023-01-29T11:44:34.328Z,99870.47
2023-01-29T11:47:18.463Z,99863.06
2023-01-29T11:49:52.349Z,99863.53
2023-01-29T11:52:21.955Z,99846.81
2023-01-29T11:54:55.348Z,99843.09
2023-01-29T11:57:36.935Z,99850.41
2023-01-29T12:00:24.848Z,99850.75
2023-01-29T12:03:16.904Z,99856.69
2023-01-29T12:05:56.378Z,99843.91
2023-01-29T12:08:24.093Z,99838.03
2023-01-29T12:10:50.996Z,99838.66
2023-01-29T12:13:28.119Z,99841.13
2023-01-29T12:16:33.129Z,99832.38
2023-01-29T12:19:28.232Z,99818.09
2023-01-29T12:22:04.643Z,99804.34
2023-01-29T12:24:59.671Z,99790.72
2023-01-29T12:27:35.493Z,99782.09
2023-01-29T12:30:29.080Z,99774.31
2023-01-29T12:32:58.501Z,99747.13
2023-01-29T12:35:29.638Z,99737.06
2023-01-29T12:38:18.177Z,99728.47
2023-01-29T12:40:51.402Z,99722.31
2023-01-29T12:43:25.173Z,99716.41
2023-01-29T12:45:57.976Z,99705.16
2023-01-29T12:48:31.939Z,99701.16
2023-01-29T12:51:19.571Z,99686.50
2023-01-29T12:54:00.979Z,99689.72
2023-01-29T12:56:43.383Z,99693.84
2023-01-29T12:59:29.854Z,99690.63
2023-01-29T13:02:10.260Z,99681.50
2023-01-29T13:04:40.441Z,99673.34
2023-01-29T13:07:32.097Z,99666.19
2023-01-29T13:10:10.443Z,99663.16
2023-01-29T13:12:39.661Z,99677.66
2023-01-29T13:15:26.796Z,99679.84
2023-01-29T13:18:16.678Z,99677.69
2023-01-29T13:20:44.674Z,99676.38
2023-01-29T13:23:22.924Z,99668.03
2023-01-29T13:25:54.750Z,99659.34
2023-01-29T13:28:26.644Z,99659.78
2023-01-29T13:31:11.766Z,99663.69
2023-01-29T13:33:40.876Z,99659.59
2023-01-29T13:36:15.542Z,99660.78
2023-01-29T13:38:43.483Z,99666.34
2023-01-29T13:41:10.006Z,99663.19
2023-01-29T13:43:43.420Z,99666.00
2023-01-29T13:46:20.768Z,99663.59
2023-01-29T13:48:50.296Z,99669.69
2023-01-29T13:51:22.032Z,99662.84
2023-01-29T13:54:03.928Z,99663.50
2023-01-29T13:56:33.378Z,99661.13
2023-01-29T13:59:02.235Z,99669.78
2023-01-29T14:01:47.400Z,99663.59
2023-01-29T14:04:28.155Z,99666.94
2023-01-29T14:06:58.060Z,99668.38
2023-01-29T14:09:37.337Z,99669.69
2023-01-29T14:12:23.216Z,99686.25
2023-01-29T14:15:21.154Z,99676.88
2023-01-29T14:17:55.201Z,99682.63
2023-01-29T14:20:38.668Z,99682.19
2023-01-29T14:23:24.503Z,99680.03
2023-01-29T14:25:51.315Z,99682.28
2023-01-29T14:28:23.030Z,99676.56
2023-01-29T14:30:50.468Z,99673.44
2023-01-29T14:33:41.002Z,99672.63
2023-01-29T14:36:15.610Z,99669.84
2023-01-29T14:38:51.879Z,99670.09
2023-01-29T14:41:29.324Z,99668.88
2023-01-29T14:44:33.253Z,99673.56
2023-01-29T14:46:59.686Z,99676.56
2023-01-29T14:49:58.101Z,99677.88
2023-01-29T14:52:40.690Z,99679.56
2023-01-29T14:55:15.797Z,99676.56
2023-01-29T14:57:43.023Z,99675.38
2023-01-29T15:00:26.685Z,99675.03
2023-01-29T15:03:01.631Z,99676.34
2023-01-29T15:05:32.938Z,99673.13
2023-01-29T15:08:16.647Z,99678.84
2023-01-29T15:10:50.982Z,99680.63
2023-01-29T15:13:35.692Z,99688.78
2023-01-29T15:16:14.762Z,99681.47
2023-01-29T15:18:45.851Z,99678.00
2023-01-29T15:21:14.807Z,99676.94
2023-01-29T15:23:43.804Z,99679.06
2023-01-29T15:26:13.366Z,99682.91
2023-01-29T15:28:39.818Z,99680.16
2023-01-29T15:31:15.611Z,99682.78
2023-01-29T15:33:46.007Z,99672.38
2023-01-29T15:36:25.495Z,99674.50
2023-01-29T15:39:27.199Z,99686.34
2023-01-29T15:42:14.219Z,99684.91
2023-01-29T15:44:45.693Z,99685.97
2023-01-29T15:47:14.172Z,99694.34
2023-01-29T15:49:43.043Z,99705.22
2023-01-29T15:52:18.096Z,99708.41
2023-01-29T15:54:45.254Z,99720.34
2023-01-29T15:57:29.494Z,99713.53
2023-01-29T15:59:58.703Z,99712.91
2023-01-29T16:02:43.815Z,99708.63
2023-01-29T16:05:24.018Z,99708.94
2023-01-29T16:07:52.308Z,99713.09
2023-01-29T16:10:28.249Z,99728.63
2023-01-29T16:12:55.056Z,99732.53
2023-01-29T16:15:31.060Z,99733.81
2023-01-29T16:17:58.375Z,99736.88
2023-01-29T16:20:39.079Z,99746.69
2023-01-29T16:23:07.497Z,99743.41
2023-01-29T16:25:36.641Z,99751.25
2023-01-29T16:28:05.384Z,99763.78
2023-01-29T16:30:32.180Z,99769.34
2023-01-29T16:33:11.403Z,99783.03
2023-01-29T16:35:38.019Z,99792.59
2023-01-29T16:38:26.167Z,99803.41
2023-01-29T16:41:16.352Z,99811.72
2023-01-29T16:43:56.950Z,99822.56
2023-01-29T16:46:35.545Z,99841.47
2023-01-29T16:49:09.895Z,99831.69
2023-01-29T16:51:38.745Z,99839.91
2023-01-29T16:54:12.410Z,99846.41
2023-01-29T16:56:42.333Z,99852.16
2023-01-29T16:59:36.834Z,99877.06
2023-01-29T17:02:05.228Z,99886.69
2023-01-29T17:04:33.310Z,99890.06
2023-01-29T17:07:02.461Z,99893.50
2023-01-29T17:09:34.898Z,99911.63
2023-01-29T17:12:05.990Z,99918.75
2023-01-29T17:14:34.036Z,99922.66
2023-01-29T17:17:15.433Z,99931.75
2023-01-29T17:19:41.871Z,99941.03
2023-01-29T17:22:08.343Z,99943.97
2023-01-29T17:24:34.960Z,99951.28
2023-01-29T17:27:02.201Z,99961.31
2023-01-29T17:29:31.595Z,99969.47
2023-01-29T17:31:58.295Z,99973.03
2023-01-29T17:34:26.973Z,99978.47
2023-01-29T17:37:01.130Z,99987.47
2023-01-29T17:39:27.685Z,99997.69
2023-01-29T17:41:57.001Z,100000.50
2023-01-29T17:44:25.208Z,99998.13
2023-01-29T17:46:53.121Z,100017.31
2023-01-29T17:49:29.664Z,100015.72
2023-01-29T17:51:57.086Z,100009.94
2023-01-29T17:54:24.288Z,100024.16
2023-01-29T17:56:52.895Z,100023.59
2023-01-29T17:59:25.602Z,100033.31
2023-01-29T18:01:52.263Z,100036.22
2023-01-29T18:04:19.557Z,100036.59
2023-01-29T18:06:49.088Z,100051.66
2023-01-29T18:09:17.818Z,100050.91
2023-01-29T18:11:46.619Z,100056.22
2023-01-29T18:14:14.691Z,100051.06
2023-01-29T18:16:42.964Z,100059.19
2023-01-29T18:19:22.569Z,100061.06
2023-01-29T18:21:49.934Z,100066.38
2023-01-29T18:24:16.408Z,100063.03
2023-01-29T18:26:43.163Z,100071.13
2023-01-29T18:29:09.850Z,100071.97
2023-01-29T18:31:36.293Z,100075.63
2023-01-29T18:34:03.256Z,100072.91
2023-01-29T18:36:29.838Z,100086.00
2023-01-29T18:38:58.328Z,100082.72
2023-01-29T18:41:24.908Z,100091.59
2023-01-29T18:43:51.468Z,100096.06
2023-01-29T18:46:18.531Z,100094.66
2023-01-29T18:48:45.043Z,100088.66
2023-01-29T18:51:11.588Z,100087.91
2023-01-29T18:53:38.016Z,100093.25
2023-01-29T18:56:08.625Z,100105.56
2023-01-29T18:58:36.790Z,100110.97
2023-01-29T19:01:06.004Z,100111.91
2023-01-29T19:03:32.952Z,100113.03
2023-01-29T19:06:04.097Z,100118.31
2023-01-29T19:08:30.874Z,100121.88
2023-01-29T19:10:57.784Z,100121.13
2023-01-29T19:13:24.529Z,100114.94
2023-01-29T19:15:52.697Z,100121.22
2023-01-29T19:18:19.211Z,100126.28
2023-01-29T19:20:45.902Z,100139.03
2023-01-29T19:23:12.663Z,100130.56
2023-01-29T19:25:39.880Z,100133.19
2023-01-29T19:28:07.072Z,100136.50
2023-01-29T19:30:34.020Z,100140.28
2023-01-29T19:33:01.037Z,100136.38
2023-01-29T19:35:30.792Z,100137.44
2023-01-29T19:37:57.297Z,100139.44
2023-01-29T19:40:24.070Z,100148.22
2023-01-29T19:42:54.707Z,100148.56
2023-01-29T19:45:37.003Z,100157.31
2023-01-29T19:48:08.717Z,100163.31
2023-01-29T19:50:35.296Z,100169.50
2023-01-29T19:53:01.676Z,100172.13
2023-01-29T19:55:30.190Z,100177.50
2023-01-29T19:57:57.625Z,100166.28
2023-01-29T20:00:28.351Z,100175.06
2023-01-29T20:02:56.369Z,100169.06
2023-01-29T20:05:23.064Z,100173.66
2023-01-29T20:07:49.681Z,100171.94
2023-01-29T20:10:16.574Z,100170.53
2023-01-29T20:12:46.028Z,100176.59
2023-01-29T20:15:13.738Z,100178.47
2023-01-29T20:17:40.305Z,100172.41
2023-01-29T20:20:07.300Z,100166.31
2023-01-29T20:22:33.812Z,100167.69
2023-01-29T20:25:01.704Z,100165.91
2023-01-29T20:27:28.256Z,100161.53
2023-01-29T20:29:54.888Z,100156.56
2023-01-29T20:32:21.372Z,100155.50
2023-01-29T20:34:47.853Z,100149.69
2023-01-29T20:37:14.341Z,100148.94
2023-01-29T20:39:40.799Z,100147.25
2023-01-29T20:42:08.453Z,100141.06
2023-01-29T20:44:34.902Z,100142.09
2023-01-29T20:47:01.950Z,100133.56
2023-01-29T20:49:28.618Z,100128.41
2023-01-29T20:51:55.109Z,100126.97
2023-01-29T20:54:21.545Z,100121.63
2023-01-29T20:56:48.238Z,100123.75
2023-01-29T20:59:16.317Z,100117.44
2023-01-29T21:01:43.680Z,100111.44
2023-01-29T21:04:10.208Z,100114.22
2023-01-29T21:06:36.712Z,100103.81
2023-01-29T21:09:05.903Z,100103.75
2023-01-29T21:11:32.601Z,100088.06
2023-01-29T21:13:59.199Z,100074.03
2023-01-29T21:16:26.378Z,100082.81
2023-01-29T21:18:57.545Z,100070.75
2023-01-29T21:21:24.628Z,100074.47
2023-01-29T21:23:51.247Z,100074.84
2023-01-29T21:26:17.936Z,100071.66
2023-01-29T21:28:46.808Z,100076.13
2023-01-29T21:31:15.085Z,100078.88
2023-01-29T21:33:41.911Z,100080.56
2023-01-29T21:36:09.454Z,100076.13
2023-01-29T21:38:36.320Z,100065.91
2023-01-29T21:41:05.070Z,100070.53
2023-01-29T21:43:31.714Z,100073.38
2023-01-29T21:46:00.888Z,100066.47
2023-01-29T21:48:27.678Z,100067.22
2023-01-29T21:50:54.191Z,100059.28
2023-01-29T21:53:20.713Z,100064.53
2023-01-29T21:55:47.439Z,100063.53
2023-01-29T21:58:14.644Z,100062.00
2023-01-29T22:00:41.645Z,100059.59
2023-01-29T22:03:08.280Z,100057.25
2023-01-29T22:05:34.872Z,100049.63
2023-01-29T22:08:02.965Z,100057.56
2023-01-29T22:10:29.632Z,100056.88
2023-01-29T22:12:57.356Z,100052.41
2023-01-29T22:15:24.797Z,100057.47
2023-01-29T22:17:52.302Z,100049.72
2023-01-29T22:20:19.868Z,100056.63
2023-01-29T22:22:46.846Z,100054.03
2023-01-29T22:25:13.429Z,100054.94
2023-01-29T22:27:39.921Z,100050.72
2023-01-29T22:30:07.262Z,100052.50
2023-01-29T22:32:33.797Z,100038.34
2023-01-29T22:35:00.540Z,100033.94
2023-01-29T22:37:27.174Z,100034.09
2023-01-29T22:39:53.772Z,100039.69
2023-01-29T22:42:22.692Z,100040.88
2023-01-29T22:44:50.207Z,100039.66
2023-01-29T22:47:20.204Z,100043.34
2023-01-29T22:49:48.345Z,100039.28
2023-01-29T22:52:14.936Z,100024.75
2023-01-29T22:54:43.366Z,100019.78
2023-01-29T22:57:11.952Z,100018.16
2023-01-29T22:59:41.307Z,100015.34
2023-01-29T23:02:08.477Z,100006.56
2023-01-29T23:04:35.225Z,99994.50
2023-01-29T23:07:01.851Z,99981.53
2023-01-29T23:09:28.633Z,99960.41
2023-01-29T23:11:55.144Z,99954.31
2023-01-29T23:14:22.643Z,99950.25
2023-01-29T23:16:49.210Z,99946.97
2023-01-29T23:19:15.870Z,99940.81
2023-01-29T23:21:42.288Z,99934.06
2023-01-29T23:24:09.478Z,99929.16
2023-01-29T23:26:36.218Z,99937.16
2023-01-29T23:29:02.692Z,99931.16
2023-01-29T23:31:29.898Z,99930.41
2023-01-29T23:33:56.427Z,99925.34
2023-01-29T23:36:22.971Z,99925.34
2023-01-29T23:38:49.419Z,99912.28
2023-01-29T23:41:15.886Z,99901.84
2023-01-29T23:43:44.516Z,99890.88
2023-01-29T23:46:11.008Z,99895.41
2023-01-29T23:48:37.767Z,99894.72
2023-01-29T23:51:05.640Z,99894.97
2023-01-29T23:53:32.179Z,99897.25
2023-01-29T23:56:01.199Z,99894.94
2023-01-29T23:58:28.738Z,99878.94
